Time;durP1;ratioP1;P1;durP2;ratioP2;P2;SDS_P1;SDS_P2;PMS_P1;PMS_P2;Temp;Humidity;BMP_temperature;BMP_pressure;BME280_temperature;BME280_humidity;BME280_pressure;Samples;Min_cycle;Max_cycle;Signal;HPM_P1;HPM_P2
2023/09/16 00:01:17;;;;;;;1.50;0.90;;;17.90;98.20;;;;;;4919527;29;20959;-80
2023/09/16 00:03:46;;;;;;;1.50;1.00;;;17.90;98.20;;;;;;4929323;28;20495;-80
2023/09/16 00:06:14;;;;;;;1.47;1.00;;;17.90;98.20;;;;;;4921316;28;20488;-80
2023/09/16 00:08:43;;;;;;;1.50;0.93;;;17.90;98.20;;;;;;4931867;29;20998;-79
2023/09/16 00:11:10;;;;;;;1.50;1.00;;;17.90;98.20;;;;;;4912290;28;20860;-80
2023/09/16 00:13:37;;;;;;;1.50;0.90;;;17.90;98.20;;;;;;4933370;29;20491;-79
2023/09/16 00:16:04;;;;;;;1.40;0.90;;;17.80;98.20;;;;;;4915214;28;20475;-80
2023/09/16 00:18:31;;;;;;;1.47;1.00;;;17.80;98.20;;;;;;4939136;29;20459;-80
2023/09/16 00:20:59;;;;;;;1.50;1.00;;;17.80;98.20;;;;;;4912193;28;20487;-80
2023/09/16 00:23:26;;;;;;;1.40;0.97;;;17.80;98.20;;;;;;4935353;29;20515;-80
2023/09/16 00:25:53;;;;;;;1.50;0.90;;;17.70;98.20;;;;;;4913935;28;20475;-80
2023/09/16 00:28:20;;;;;;;1.50;0.90;;;17.70;98.20;;;;;;4930950;29;20472;-80
2023/09/16 00:30:48;;;;;;;1.50;1.00;;;17.70;98.20;;;;;;4916122;29;20461;-79
2023/09/16 00:33:15;;;;;;;1.43;1.00;;;17.70;98.20;;;;;;4936368;28;21073;-79
2023/09/16 00:35:41;;;;;;;1.47;0.97;;;17.70;98.20;;;;;;4925245;29;20471;-79
2023/09/16 00:38:09;;;;;;;1.50;1.00;;;17.70;98.20;;;;;;4930243;28;20492;-80
2023/09/16 00:40:36;;;;;;;1.50;0.90;;;17.70;98.20;;;;;;4928657;29;21092;-80
2023/09/16 00:43:03;;;;;;;1.50;1.00;;;17.70;98.20;;;;;;4925854;28;20487;-79
2023/09/16 00:45:30;;;;;;;1.50;0.90;;;17.70;98.20;;;;;;4919053;29;20480;-80
2023/09/16 00:47:58;;;;;;;1.50;0.90;;;17.70;98.20;;;;;;4931285;28;20484;-79
2023/09/16 00:50:25;;;;;;;1.50;0.90;;;17.70;98.20;;;;;;4931402;29;20519;-80
2023/09/16 00:52:55;;;;;;;1.50;0.90;;;17.80;98.20;;;;;;4932006;28;21048;-81
2023/09/16 00:55:26;;;;;;;1.50;1.00;;;17.80;98.20;;;;;;4926820;29;20520;-82
2023/09/16 00:57:55;;;;;;;1.43;1.00;;;17.80;98.20;;;;;;4926003;28;20864;-80
2023/09/16 01:00:26;;;;;;;1.50;1.00;;;17.80;98.20;;;;;;4921748;29;20575;-80
2023/09/16 01:02:53;;;;;;;1.47;0.90;;;17.80;98.20;;;;;;4929828;28;20491;-80
2023/09/16 01:05:20;;;;;;;1.50;1.00;;;17.80;98.20;;;;;;4922070;29;20894;-79
2023/09/16 01:07:47;;;;;;;1.50;1.00;;;17.70;98.20;;;;;;4924972;28;20495;-80
2023/09/16 01:10:14;;;;;;;1.50;1.00;;;17.70;98.20;;;;;;4927948;29;20855;-79
2023/09/16 01:12:43;;;;;;;1.50;1.00;;;17.70;98.20;;;;;;4926081;28;20900;-78
2023/09/16 01:15:10;;;;;;;1.50;1.00;;;17.70;98.20;;;;;;4928994;29;20460;-80
2023/09/16 01:17:44;;;;;;;1.50;1.00;;;17.70;98.20;;;;;;4927432;28;20554;-80
2023/09/16 01:20:13;;;;;;;1.50;1.00;;;17.70;98.20;;;;;;4922477;29;20475;-80
2023/09/16 01:22:44;;;;;;;1.47;1.00;;;17.70;98.20;;;;;;4925149;28;20518;-79
2023/09/16 01:25:13;;;;;;;1.40;0.90;;;17.70;98.20;;;;;;4918246;29;20531;-80
2023/09/16 01:27:40;;;;;;;1.50;0.90;;;17.70;98.20;;;;;;4930116;28;20478;-79
2023/09/16 01:30:08;;;;;;;1.50;1.00;;;17.70;98.20;;;;;;4921262;29;20472;-79
2023/09/16 01:32:42;;;;;;;1.50;1.00;;;17.70;98.20;;;;;;4913265;29;20487;-81
2023/09/16 01:35:14;;;;;;;1.47;0.90;;;17.70;98.20;;;;;;4926006;29;20546;-79
2023/09/16 01:37:44;;;;;;;1.50;0.90;;;17.70;98.20;;;;;;4913465;28;20857;-80
2023/09/16 01:40:13;;;;;;;1.40;1.00;;;17.70;98.20;;;;;;4913145;29;20496;-80
2023/09/16 01:42:41;;;;;;;1.43;0.90;;;17.80;98.20;;;;;;4919898;28;20490;-81
2023/09/16 01:45:10;;;;;;;1.50;1.10;;;17.80;98.20;;;;;;4916313;29;20680;-80
2023/09/16 01:47:37;;;;;;;1.50;1.00;;;17.80;98.20;;;;;;4928426;28;20489;-81
2023/09/16 01:50:05;;;;;;;1.50;1.00;;;17.80;98.20;;;;;;4924491;29;20471;-80
2023/09/16 01:52:32;;;;;;;1.43;1.00;;;17.80;98.20;;;;;;4928150;28;20487;-78
2023/09/16 01:54:58;;;;;;;1.50;0.90;;;17.80;98.20;;;;;;4917846;29;20476;-80
2023/09/16 01:57:26;;;;;;;1.50;0.93;;;17.80;98.20;;;;;;4915148;28;20490;-81
2023/09/16 01:59:53;;;;;;;1.50;1.00;;;17.80;98.20;;;;;;4912197;29;20476;-79
2023/09/16 02:02:20;;;;;;;1.50;1.00;;;17.80;98.20;;;;;;4915189;28;20502;-79
2023/09/16 02:04:47;;;;;;;1.87;1.60;;;17.80;98.20;;;;;;4917640;29;20469;-80
2023/09/16 02:07:14;;;;;;;1.47;0.90;;;17.80;98.20;;;;;;4923654;29;21039;-78
2023/09/16 02:09:42;;;;;;;1.50;1.00;;;17.80;98.20;;;;;;4926905;29;20467;-78
2023/09/16 02:12:08;;;;;;;1.50;1.00;;;17.80;98.20;;;;;;4922211;28;20499;-78
2023/09/16 02:14:39;;;;;;;1.50;0.90;;;17.70;98.20;;;;;;4926109;29;20561;-81
2023/09/16 02:17:07;;;;;;;1.50;0.90;;;17.70;98.20;;;;;;4926171;28;21018;-81
2023/09/16 02:19:34;;;;;;;1.50;1.00;;;17.70;98.20;;;;;;4922423;29;20465;-80
2023/09/16 02:22:01;;;;;;;1.50;1.00;;;17.60;98.20;;;;;;4921631;28;20492;-80
2023/09/16 02:24:28;;;;;;;1.47;0.90;;;17.60;98.20;;;;;;4928873;29;20470;-80
2023/09/16 02:26:54;;;;;;;1.47;1.00;;;17.60;98.20;;;;;;4921603;28;20488;-80
2023/09/16 02:29:21;;;;;;;1.50;1.00;;;17.50;98.20;;;;;;4932663;29;20558;-78
2023/09/16 02:31:50;;;;;;;1.43;0.90;;;17.50;98.20;;;;;;4922579;28;20489;-80
2023/09/16 02:34:17;;;;;;;1.40;1.00;;;17.50;98.20;;;;;;4933721;29;20634;-79
2023/09/16 02:36:44;;;;;;;1.50;1.00;;;17.40;98.20;;;;;;4924990;28;21032;-79
2023/09/16 02:39:10;;;;;;;1.50;1.00;;;17.40;98.20;;;;;;4932623;29;20460;-79
2023/09/16 02:41:37;;;;;;;1.47;0.90;;;17.40;98.20;;;;;;4916459;28;21081;-80
2023/09/16 02:44:04;;;;;;;1.47;0.90;;;17.30;98.20;;;;;;4928434;28;20596;-80
2023/09/16 02:46:31;;;;;;;1.50;1.00;;;17.30;98.20;;;;;;4912278;28;20535;-76
2023/09/16 02:48:59;;;;;;;1.47;0.93;;;17.30;98.20;;;;;;4927833;29;20467;-79
2023/09/16 02:51:26;;;;;;;1.50;1.00;;;17.30;98.20;;;;;;4915777;28;20484;-79
2023/09/16 02:53:55;;;;;;;1.50;1.00;;;17.30;98.20;;;;;;4934456;28;20492;-80
2023/09/16 02:56:22;;;;;;;1.43;1.00;;;17.30;98.20;;;;;;4922176;28;20546;-80
2023/09/16 02:58:49;;;;;;;1.50;0.93;;;17.30;98.20;;;;;;4937327;29;20468;-79
2023/09/16 03:01:15;;;;;;;1.50;1.00;;;17.30;98.20;;;;;;4914657;28;20483;-78
2023/09/16 03:03:43;;;;;;;1.47;1.00;;;17.30;98.20;;;;;;4935198;29;20487;-80
2023/09/16 03:06:11;;;;;;;1.50;1.00;;;17.30;98.20;;;;;;4919798;28;20890;-79
2023/09/16 03:08:38;;;;;;;1.50;1.00;;;17.30;98.20;;;;;;4939202;29;20856;-80
2023/09/16 03:11:06;;;;;;;1.47;0.90;;;17.30;98.20;;;;;;4919972;28;20722;-80
2023/09/16 03:13:33;;;;;;;1.40;0.97;;;17.40;98.20;;;;;;4942149;29;20488;-81
2023/09/16 03:16:16;;;;;;;1.50;0.90;;;17.40;98.20;;;;;;4918081;28;20951;-80
2023/09/16 03:18:45;;;;;;;1.50;0.97;;;17.40;98.20;;;;;;4940521;29;20459;-80
2023/09/16 03:21:14;;;;;;;1.47;1.00;;;17.40;98.20;;;;;;4919479;28;20542;-79
2023/09/16 03:23:41;;;;;;;1.50;1.00;;;17.40;98.20;;;;;;4937574;29;20487;-80
2023/09/16 03:26:09;;;;;;;1.50;1.00;;;17.40;98.20;;;;;;4917524;28;20468;-80
2023/09/16 03:28:36;;;;;;;1.50;0.90;;;17.40;98.20;;;;;;4937738;29;20475;-80
2023/09/16 03:31:02;;;;;;;1.50;1.00;;;17.50;98.20;;;;;;4914802;28;20460;-80
2023/09/16 03:33:29;;;;;;;1.40;0.90;;;17.50;98.20;;;;;;4939331;28;20491;-79
2023/09/16 03:35:56;;;;;;;1.50;0.90;;;17.50;98.20;;;;;;4915650;28;20467;-80
2023/09/16 03:38:29;;;;;;;1.50;1.00;;;17.50;98.20;;;;;;4943347;29;20877;-80
2023/09/16 03:40:56;;;;;;;1.50;1.00;;;17.50;98.20;;;;;;4915230;28;20468;-77
2023/09/16 03:43:22;;;;;;;1.70;1.57;;;17.50;98.20;;;;;;4942583;28;20486;-77
2023/09/16 03:45:49;;;;;;;1.50;0.90;;;17.60;98.20;;;;;;4917031;28;20468;-80
2023/09/16 03:48:16;;;;;;;1.47;0.97;;;17.60;98.20;;;;;;4937250;29;20478;-78
2023/09/16 03:50:43;;;;;;;1.43;1.00;;;17.60;98.20;;;;;;4922269;29;20475;-80
2023/09/16 03:53:10;;;;;;;1.43;0.90;;;17.60;98.20;;;;;;4928161;28;20574;-80
2023/09/16 03:55:38;;;;;;;1.50;0.97;;;17.60;98.20;;;;;;4929697;29;20550;-80
2023/09/16 03:58:05;;;;;;;1.50;1.00;;;17.60;98.20;;;;;;4928000;28;20491;-80
2023/09/16 04:00:31;;;;;;;1.50;1.00;;;17.70;98.20;;;;;;4923440;29;20836;-78
2023/09/16 04:02:58;;;;;;;1.47;1.00;;;17.70;98.20;;;;;;4931897;28;20557;-80
2023/09/16 04:05:25;;;;;;;1.50;0.90;;;17.70;98.20;;;;;;4921895;29;20556;-79
2023/09/16 04:07:52;;;;;;;1.50;1.00;;;17.70;98.20;;;;;;4926149;28;20493;-79
2023/09/16 04:10:19;;;;;;;1.40;0.90;;;17.60;98.20;;;;;;4924553;29;21348;-80
2023/09/16 04:12:47;;;;;;;1.50;0.90;;;17.60;98.20;;;;;;4931567;28;20504;-79
2023/09/16 04:15:15;;;;;;;1.47;1.00;;;17.60;98.20;;;;;;4921529;29;20463;-77
2023/09/16 04:17:42;;;;;;;1.50;1.00;;;17.60;98.20;;;;;;4926976;28;20484;-78
2023/09/16 04:20:10;;;;;;;1.47;1.00;;;17.60;98.20;;;;;;4925224;29;20848;-80
2023/09/16 04:22:36;;;;;;;1.43;1.00;;;17.60;98.20;;;;;;4908227;29;20926;-81
2023/09/16 04:25:03;;;;;;;1.87;1.67;;;17.50;98.20;;;;;;4927398;29;20469;-79
2023/09/16 04:27:30;;;;;;;1.40;0.90;;;17.50;98.20;;;;;;4918474;28;20483;-79
2023/09/16 04:29:58;;;;;;;1.47;1.00;;;17.50;98.20;;;;;;4926267;29;20469;-79
2023/09/16 04:32:25;;;;;;;1.47;1.00;;;17.50;98.20;;;;;;4920831;28;20487;-79
2023/09/16 04:34:52;;;;;;;1.50;0.90;;;17.50;98.20;;;;;;4924765;29;20475;-79
2023/09/16 04:37:18;;;;;;;1.47;0.90;;;17.40;98.20;;;;;;4929593;28;20488;-79
2023/09/16 04:39:45;;;;;;;1.50;1.00;;;17.40;98.20;;;;;;4924634;29;20500;-78
2023/09/16 04:42:12;;;;;;;1.50;1.10;;;17.40;98.20;;;;;;4925598;28;20483;-77
2023/09/16 04:44:39;;;;;;;1.50;0.97;;;17.40;98.20;;;;;;4927302;29;20589;-79
2023/09/16 04:47:10;;;;;;;1.50;1.00;;;17.40;98.20;;;;;;4927181;28;20486;-79
2023/09/16 04:49:37;;;;;;;1.50;1.00;;;17.40;98.20;;;;;;4931101;28;20494;-79
2023/09/16 04:52:04;;;;;;;1.50;0.97;;;17.40;98.20;;;;;;4926618;29;20484;-78
2023/09/16 04:54:32;;;;;;;1.50;0.90;;;17.40;98.20;;;;;;4931492;29;20506;-80
2023/09/16 04:56:59;;;;;;;1.50;0.90;;;17.40;98.20;;;;;;4926669;29;20561;-79
2023/09/16 04:59:25;;;;;;;1.47;0.90;;;17.40;98.20;;;;;;4934566;29;20477;-80
2023/09/16 05:01:52;;;;;;;1.50;1.00;;;17.40;98.20;;;;;;4916456;29;20873;-79
2023/09/16 05:04:20;;;;;;;1.50;1.00;;;17.40;98.20;;;;;;4935272;28;20535;-78
2023/09/16 05:06:47;;;;;;;1.50;1.00;;;17.40;98.20;;;;;;4925148;28;20491;-80
2023/09/16 05:09:14;;;;;;;1.50;0.90;;;17.30;98.20;;;;;;4934613;29;20951;-77
2023/09/16 05:11:41;;;;;;;1.50;0.90;;;17.30;98.20;;;;;;4922949;29;20483;-79
2023/09/16 05:14:07;;;;;;;1.40;1.00;;;17.30;98.20;;;;;;4936932;28;21006;-79
2023/09/16 05:16:34;;;;;;;1.50;1.00;;;17.30;98.20;;;;;;4923497;29;20493;-78
2023/09/16 05:19:01;;;;;;;1.50;0.90;;;17.30;98.20;;;;;;4933305;29;20472;-79
2023/09/16 05:21:29;;;;;;;1.47;1.00;;;17.30;98.20;;;;;;4916429;29;20479;-79
2023/09/16 05:23:55;;;;;;;1.50;1.10;;;17.30;98.20;;;;;;4928439;29;20500;-80
2023/09/16 05:26:22;;;;;;;1.50;1.00;;;17.20;98.20;;;;;;4905064;29;20484;-78
2023/09/16 05:28:50;;;;;;;1.43;0.90;;;17.20;98.20;;;;;;4917056;29;20465;-79
2023/09/16 05:31:17;;;;;;;1.50;1.00;;;17.20;98.20;;;;;;4910649;29;21023;-79
2023/09/16 05:33:44;;;;;;;1.50;1.00;;;17.20;98.20;;;;;;4925595;28;20488;-79
2023/09/16 05:36:11;;;;;;;1.73;1.63;;;17.30;98.20;;;;;;4910688;29;21030;-77
2023/09/16 05:38:39;;;;;;;1.50;0.93;;;17.30;98.20;;;;;;4927975;29;20472;-79
2023/09/16 05:41:06;;;;;;;1.50;1.00;;;17.30;98.20;;;;;;4909835;29;21486;-80
2023/09/16 05:43:32;;;;;;;1.50;0.93;;;17.30;98.20;;;;;;4928226;29;20498;-79
2023/09/16 05:46:01;;;;;;;1.50;1.00;;;17.30;98.20;;;;;;4907488;29;20472;-81
2023/09/16 05:48:27;;;;;;;1.50;1.00;;;17.30;98.20;;;;;;4937856;29;20532;-80
2023/09/16 05:50:57;;;;;;;1.50;1.27;;;17.30;98.20;;;;;;4903891;28;21003;-80
2023/09/16 05:53:24;;;;;;;1.47;0.90;;;17.30;98.20;;;;;;4935542;29;20924;-79
2023/09/16 05:55:53;;;;;;;1.50;0.90;;;17.30;98.20;;;;;;4908033;29;20547;-77
2023/09/16 05:58:19;;;;;;;1.50;1.00;;;17.30;98.20;;;;;;4929146;29;20540;-79
2023/09/16 06:00:54;;;;;;;1.43;1.00;;;17.40;98.20;;;;;;4912506;29;20460;-79
2023/09/16 06:03:21;;;;;;;1.50;0.90;;;17.40;98.20;;;;;;4928151;29;20487;-80
2023/09/16 06:05:48;;;;;;;1.50;0.97;;;17.40;98.20;;;;;;4910760;29;20468;-78
2023/09/16 06:08:15;;;;;;;1.50;1.00;;;17.50;98.20;;;;;;4932023;29;20983;-79
2023/09/16 06:10:41;;;;;;;1.47;1.00;;;17.60;98.20;;;;;;4923169;29;20832;-79
2023/09/16 06:13:09;;;;;;;1.47;0.90;;;17.70;98.20;;;;;;4915376;28;20569;-80
2023/09/16 06:15:36;;;;;;;1.47;0.90;;;17.70;98.20;;;;;;4906674;29;21186;-77
2023/09/16 06:18:05;;;;;;;1.50;0.90;;;17.80;98.20;;;;;;4921261;28;20895;-78
2023/09/16 06:20:32;;;;;;;1.50;1.00;;;18.00;98.20;;;;;;4908768;29;20552;-79
2023/09/16 06:23:02;;;;;;;1.50;1.10;;;18.00;98.20;;;;;;4917705;28;21750;-78
2023/09/16 06:25:29;;;;;;;1.47;0.97;;;18.10;98.20;;;;;;4914818;29;20992;-78
2023/09/16 06:27:58;;;;;;;1.50;0.90;;;18.30;98.20;;;;;;4915342;28;20480;-77
2023/09/16 06:30:26;;;;;;;1.50;0.90;;;18.30;98.20;;;;;;4907489;29;20472;-79
2023/09/16 06:32:53;;;;;;;1.50;0.90;;;18.50;98.20;;;;;;4917415;29;20483;-79
2023/09/16 06:35:20;;;;;;;1.50;0.90;;;18.60;98.20;;;;;;4911979;29;20820;-79
2023/09/16 06:37:49;;;;;;;1.50;1.00;;;18.80;98.20;;;;;;4919445;29;20531;-76
2023/09/16 06:40:17;;;;;;;1.50;1.10;;;18.90;98.20;;;;;;4912439;29;20906;-79
2023/09/16 06:42:43;;;;;;;1.43;0.90;;;19.10;98.20;;;;;;4916405;29;20925;-79
2023/09/16 06:45:11;;;;;;;1.50;0.97;;;19.20;98.20;;;;;;4909741;29;20464;-76
2023/09/16 06:47:39;;;;;;;1.50;1.00;;;19.40;98.20;;;;;;4904712;28;20488;-76
2023/09/16 06:50:08;;;;;;;1.50;0.90;;;19.50;98.20;;;;;;4915155;29;20483;-77
2023/09/16 06:52:35;;;;;;;1.50;0.90;;;19.60;98.20;;;;;;4911121;28;21158;-78
2023/09/16 06:55:02;;;;;;;1.50;1.00;;;19.70;98.20;;;;;;4914761;29;20464;-79
2023/09/16 06:57:28;;;;;;;1.50;0.90;;;19.80;98.20;;;;;;4914899;29;20517;-79
2023/09/16 06:59:55;;;;;;;1.50;0.93;;;20.00;98.20;;;;;;4913802;29;20468;-77
2023/09/16 07:02:22;;;;;;;1.50;0.97;;;20.00;98.20;;;;;;4911025;29;20898;-77
2023/09/16 07:04:50;;;;;;;1.50;0.90;;;20.10;98.20;;;;;;4915426;29;20467;-78
2023/09/16 07:07:17;;;;;;;1.50;0.90;;;20.20;98.20;;;;;;4914976;29;20483;-77
2023/09/16 07:09:44;;;;;;;1.50;0.93;;;20.40;98.20;;;;;;4913995;29;20960;-77
2023/09/16 07:12:11;;;;;;;1.50;0.90;;;20.50;98.20;;;;;;4911431;29;20490;-78
2023/09/16 07:14:38;;;;;;;1.50;0.90;;;20.70;98.20;;;;;;4918725;29;20473;-78
2023/09/16 07:17:05;;;;;;;1.50;0.90;;;20.80;98.20;;;;;;4910359;28;20483;-77
2023/09/16 07:19:33;;;;;;;1.50;0.90;;;20.90;98.20;;;;;;4914022;29;20503;-78
2023/09/16 07:22:02;;;;;;;1.50;0.90;;;21.00;98.20;;;;;;4912661;29;21174;-77
2023/09/16 07:24:29;;;;;;;1.50;0.90;;;21.10;98.20;;;;;;4919246;29;20488;-77
2023/09/16 07:26:56;;;;;;;1.50;0.90;;;21.10;98.20;;;;;;4912693;28;20579;-78
2023/09/16 07:29:22;;;;;;;1.50;0.90;;;21.20;98.20;;;;;;4915177;29;20988;-77
2023/09/16 07:31:49;;;;;;;1.50;0.90;;;21.20;98.20;;;;;;4907665;29;20546;-78
2023/09/16 07:34:16;;;;;;;1.50;0.90;;;21.40;98.20;;;;;;4918137;29;20507;-77
2023/09/16 07:36:43;;;;;;;1.50;0.90;;;21.50;98.20;;;;;;4907289;29;20500;-78
2023/09/16 07:39:11;;;;;;;1.50;0.90;;;21.60;98.20;;;;;;4920912;29;20459;-78
2023/09/16 07:41:38;;;;;;;1.50;1.00;;;21.80;98.20;;;;;;4907155;28;20496;-78
2023/09/16 07:44:05;;;;;;;1.50;0.90;;;21.80;98.20;;;;;;4921797;28;20497;-78
2023/09/16 07:46:33;;;;;;;1.50;0.90;;;21.90;98.20;;;;;;4909205;28;20491;-78
2023/09/16 07:49:00;;;;;;;1.50;0.90;;;21.90;98.20;;;;;;4923371;29;20535;-77
2023/09/16 07:51:27;;;;;;;1.50;0.90;;;22.00;98.20;;;;;;4910249;29;20499;-78
2023/09/16 07:53:54;;;;;;;1.50;0.90;;;22.10;98.20;;;;;;4921408;29;20515;-78
2023/09/16 07:56:22;;;;;;;1.50;0.90;;;22.20;98.20;;;;;;4907859;29;20871;-76
2023/09/16 07:58:49;;;;;;;1.50;0.90;;;22.30;98.20;;;;;;4922338;29;20475;-77
2023/09/16 08:01:15;;;;;;;1.50;0.90;;;22.40;98.20;;;;;;4907738;28;20482;-77
2023/09/16 08:03:42;;;;;;;1.50;0.90;;;22.40;98.20;;;;;;4927409;29;20489;-76
2023/09/16 08:06:09;;;;;;;1.50;0.90;;;22.40;98.20;;;;;;4908306;29;20546;-75
2023/09/16 08:08:36;;;;;;;1.50;0.90;;;22.50;98.20;;;;;;4925352;29;20867;-76
2023/09/16 08:11:03;;;;;;;1.47;0.90;;;22.60;98.20;;;;;;4902333;29;20469;-76
2023/09/16 08:13:31;;;;;;;1.90;1.40;;;22.70;98.20;;;;;;4910530;29;20488;-74
2023/09/16 08:15:58;;;;;;;2.03;1.27;;;22.80;98.20;;;;;;4903846;29;20473;-75
2023/09/16 08:18:25;;;;;;;1.50;0.90;;;22.90;98.00;;;;;;4923401;29;20474;-75
2023/09/16 08:20:51;;;;;;;1.50;1.03;;;23.10;98.20;;;;;;4904052;29;20504;-76
2023/09/16 08:23:18;;;;;;;1.50;0.90;;;23.20;97.10;;;;;;4928830;29;20491;-77
2023/09/16 08:25:46;;;;;;;1.43;0.90;;;23.40;97.80;;;;;;4916712;29;20959;-78
2023/09/16 08:28:13;;;;;;;1.47;0.90;;;23.50;96.80;;;;;;4905855;29;20475;-77
2023/09/16 08:30:41;;;;;;;1.47;0.90;;;23.70;97.40;;;;;;4912831;29;20465;-76
2023/09/16 08:33:09;;;;;;;1.50;1.00;;;23.80;96.80;;;;;;5245949;23;20466;-77
2023/09/16 08:35:35;;;;;;;1.47;0.87;;;23.80;95.90;;;;;;4951626;28;20482;-79
2023/09/16 08:38:02;;;;;;;1.47;0.87;;;23.90;96.00;;;;;;4961434;28;20548;-78
2023/09/16 08:40:32;;;;;;;1.50;0.90;;;24.00;95.70;;;;;;4950761;28;20525;-76
2023/09/16 08:43:10;;;;;;;1.50;0.90;;;24.10;95.10;;;;;;4956466;28;20510;-77
2023/09/16 08:45:44;;;;;;;1.47;0.87;;;24.10;94.90;;;;;;4932368;29;20527;-77
2023/09/16 08:48:14;;;;;;;1.50;0.90;;;24.20;95.10;;;;;;4933432;28;20938;-77
2023/09/16 08:50:42;;;;;;;1.47;0.90;;;24.30;95.30;;;;;;4931750;29;20475;-78
2023/09/16 08:53:11;;;;;;;1.47;0.90;;;24.40;95.40;;;;;;4927392;28;20487;-76
2023/09/16 08:55:38;;;;;;;2.03;1.83;;;24.60;94.60;;;;;;4932692;29;20575;-78
2023/09/16 08:58:07;;;;;;;1.50;0.90;;;24.60;93.70;;;;;;4929356;28;20481;-77
2023/09/16 09:00:34;;;;;;;1.50;0.90;;;24.70;93.40;;;;;;4930505;29;20472;-76
2023/09/16 09:03:03;;;;;;;1.50;0.90;;;24.60;93.20;;;;;;4928515;28;20740;-76
2023/09/16 09:05:30;;;;;;;1.50;0.87;;;24.60;93.40;;;;;;4931168;29;20472;-78
2023/09/16 09:07:58;;;;;;;1.47;0.90;;;24.60;93.40;;;;;;4930685;28;20649;-77
2023/09/16 09:10:25;;;;;;;1.50;0.90;;;24.60;94.00;;;;;;4930186;29;20478;-75
2023/09/16 09:12:52;;;;;;;1.50;0.90;;;24.60;93.80;;;;;;4929300;28;20877;-76
2023/09/16 09:15:18;;;;;;;1.47;0.80;;;24.50;93.80;;;;;;4929610;29;20858;-76
2023/09/16 09:17:49;;;;;;;1.50;0.90;;;24.50;94.70;;;;;;4930668;28;20866;-75
2023/09/16 09:20:20;;;;;;;1.47;0.90;;;24.60;94.90;;;;;;4930531;29;20487;-76
2023/09/16 09:22:49;;;;;;;1.50;0.90;;;24.70;93.70;;;;;;4934760;28;20493;-77
2023/09/16 09:25:19;;;;;;;1.50;0.80;;;24.80;93.70;;;;;;4926509;29;20492;-76
2023/09/16 09:27:46;;;;;;;1.50;0.90;;;25.00;93.70;;;;;;4931207;28;20506;-76
2023/09/16 09:30:14;;;;;;;1.50;0.90;;;25.30;94.10;;;;;;4930597;28;20467;-77
2023/09/16 09:32:44;;;;;;;1.47;0.80;;;25.50;93.20;;;;;;4927578;28;20583;-77
2023/09/16 09:35:12;;;;;;;3.10;2.07;;;25.70;93.80;;;;;;4929147;29;20498;-77
2023/09/16 09:37:40;;;;;;;1.47;0.80;;;25.90;92.50;;;;;;4932763;28;20526;-77
2023/09/16 09:40:09;;;;;;;1.47;0.90;;;26.20;92.00;;;;;;4932478;28;20467;-76
2023/09/16 09:42:40;;;;;;;1.50;0.80;;;26.30;91.20;;;;;;4926351;28;20486;-77
2023/09/16 09:45:08;;;;;;;1.50;0.80;;;26.40;91.00;;;;;;4931224;29;20554;-77
2023/09/16 09:47:35;;;;;;;1.43;0.90;;;26.40;91.00;;;;;;4931934;28;20486;-76
2023/09/16 09:50:03;;;;;;;1.50;1.00;;;26.60;89.80;;;;;;4932603;28;20479;-77
2023/09/16 09:52:30;;;;;;;1.60;1.23;;;26.70;90.60;;;;;;4929480;28;20486;-77
2023/09/16 09:54:58;;;;;;;1.50;0.90;;;26.90;90.60;;;;;;4934712;28;20996;-78
2023/09/16 09:57:27;;;;;;;1.43;0.80;;;27.10;89.70;;;;;;4930528;28;20483;-78
2023/09/16 09:59:53;;;;;;;1.50;1.00;;;27.20;89.70;;;;;;4934823;28;20463;-79
2023/09/16 10:02:24;;;;;;;1.43;0.80;;;27.30;88.70;;;;;;4925248;28;21005;-76
2023/09/16 10:04:57;;;;;;;1.50;0.90;;;27.40;88.80;;;;;;4934391;28;20499;-77
2023/09/16 10:07:25;;;;;;;1.50;1.00;;;27.50;89.30;;;;;;4929118;28;21064;-78
2023/09/16 10:09:52;;;;;;;1.50;0.90;;;27.40;88.80;;;;;;4932433;28;20609;-77
2023/09/16 10:12:21;;;;;;;1.77;1.10;;;27.60;89.70;;;;;;4927119;28;20497;-78
2023/09/16 10:14:48;;;;;;;1.43;0.80;;;27.60;88.20;;;;;;4931331;28;21084;-77
2023/09/16 10:17:15;;;;;;;1.50;0.90;;;27.80;89.10;;;;;;4928670;28;20489;-77
2023/09/16 10:19:43;;;;;;;1.50;0.80;;;27.80;87.10;;;;;;4928304;28;20602;-77
2023/09/16 10:22:11;;;;;;;1.47;0.80;;;27.80;86.70;;;;;;4924913;28;20477;-77
2023/09/16 10:24:40;;;;;;;3.23;3.03;;;27.60;88.20;;;;;;4933683;28;20495;-79
2023/09/16 10:27:12;;;;;;;1.40;0.80;;;27.60;90.40;;;;;;4929512;28;20520;-77
2023/09/16 10:29:41;;;;;;;1.43;0.80;;;27.80;89.40;;;;;;4935399;28;20543;-78
2023/09/16 10:32:08;;;;;;;1.50;0.90;;;28.00;89.40;;;;;;4925946;28;20494;-77
2023/09/16 10:34:38;;;;;;;1.60;1.10;;;28.20;87.70;;;;;;4932262;28;20639;-78
2023/09/16 10:37:05;;;;;;;1.43;0.80;;;28.30;87.00;;;;;;4930262;28;20492;-77
2023/09/16 10:39:33;;;;;;;1.47;0.80;;;28.50;87.10;;;;;;4932689;28;20478;-76
2023/09/16 10:42:01;;;;;;;1.43;0.80;;;28.60;86.20;;;;;;4927892;28;20489;-77
2023/09/16 10:44:30;;;;;;;1.43;0.90;;;28.80;87.00;;;;;;4935499;28;20495;-76
2023/09/16 10:47:04;;;;;;;1.50;0.97;;;28.80;85.80;;;;;;4930641;28;20718;-77
2023/09/16 10:49:31;;;;;;;2.90;1.83;;;28.70;86.80;;;;;;4931670;28;20478;-77
2023/09/16 10:52:02;;;;;;;1.47;0.80;;;28.80;86.00;;;;;;4921588;28;20522;-76
2023/09/16 10:54:41;;;;;;;1.50;0.80;;;28.70;86.50;;;;;;4924939;28;20568;-76
2023/09/16 10:57:16;;;;;;;1.47;0.83;;;28.80;85.40;;;;;;4922567;28;20914;-76
2023/09/16 10:59:44;;;;;;;1.43;0.90;;;28.80;85.50;;;;;;4926196;28;20558;-76
2023/09/16 11:02:22;;;;;;;1.50;0.90;;;28.90;87.30;;;;;;4923890;28;20866;-77
2023/09/16 11:04:49;;;;;;;1.50;0.90;;;29.10;87.00;;;;;;4929481;28;20495;-78
2023/09/16 11:07:17;;;;;;;1.43;0.80;;;29.10;85.00;;;;;;4922568;28;20982;-77
2023/09/16 11:09:48;;;;;;;1.50;0.80;;;29.20;86.80;;;;;;4928748;28;21113;-77
2023/09/16 11:12:17;;;;;;;1.50;0.80;;;29.30;85.20;;;;;;4923299;28;20544;-77
2023/09/16 11:14:44;;;;;;;1.47;0.80;;;29.40;83.60;;;;;;4924651;28;20495;-77
2023/09/16 11:17:14;;;;;;;1.60;0.80;;;29.30;84.30;;;;;;4923441;28;20482;-78
2023/09/16 11:19:42;;;;;;;1.43;0.80;;;29.40;85.10;;;;;;4926775;28;20467;-77
2023/09/16 11:22:10;;;;;;;1.43;0.80;;;29.50;84.20;;;;;;4921624;28;20481;-78
2023/09/16 11:24:38;;;;;;;1.43;0.80;;;29.50;84.40;;;;;;4930294;28;20803;-78
2023/09/16 11:27:06;;;;;;;1.47;0.80;;;29.60;84.60;;;;;;4926271;28;20796;-78
2023/09/16 11:29:33;;;;;;;1.47;0.80;;;29.70;85.40;;;;;;4936650;28;20478;-76
2023/09/16 11:32:02;;;;;;;1.43;0.80;;;29.60;83.30;;;;;;4929828;28;20489;-75
2023/09/16 11:34:32;;;;;;;1.50;0.90;;;29.40;83.80;;;;;;4933294;28;20577;-77
2023/09/16 11:37:01;;;;;;;1.47;0.80;;;29.30;83.70;;;;;;4922945;28;21041;-77
2023/09/16 11:39:36;;;;;;;1.50;0.80;;;29.30;83.20;;;;;;4929499;28;20950;-78
2023/09/16 11:42:03;;;;;;;1.47;0.80;;;29.30;84.50;;;;;;4926647;28;20580;-76
2023/09/16 11:44:31;;;;;;;1.47;0.80;;;29.30;85.30;;;;;;4929409;28;21062;-76
2023/09/16 11:46:59;;;;;;;1.40;0.80;;;29.40;83.80;;;;;;4921267;28;20568;-75
2023/09/16 11:49:26;;;;;;;1.50;0.80;;;29.50;82.50;;;;;;4929990;28;21312;-76
2023/09/16 11:51:54;;;;;;;1.47;0.90;;;29.50;84.10;;;;;;4925508;28;20800;-76
2023/09/16 11:54:22;;;;;;;4.60;1.20;;;29.60;83.70;;;;;;4932818;28;20578;-75
2023/09/16 11:56:51;;;;;;;1.50;0.80;;;29.70;84.00;;;;;;4921297;28;20532;-75
2023/09/16 11:59:18;;;;;;;1.50;0.80;;;29.90;83.90;;;;;;4928844;28;20472;-76
2023/09/16 12:01:46;;;;;;;1.40;0.80;;;30.10;82.90;;;;;;4922105;28;20675;-77
2023/09/16 12:04:15;;;;;;;1.50;1.00;;;30.30;83.40;;;;;;4928952;28;20503;-76
2023/09/16 12:06:43;;;;;;;1.50;0.90;;;30.40;82.30;;;;;;4919337;28;20544;-76
2023/09/16 12:09:16;;;;;;;1.47;0.80;;;30.50;81.70;;;;;;4928319;28;20473;-77
2023/09/16 12:11:44;;;;;;;1.40;0.80;;;30.50;81.00;;;;;;4921726;28;20486;-75
2023/09/16 12:14:12;;;;;;;1.47;0.80;;;30.40;79.30;;;;;;4933041;28;20491;-76
2023/09/16 12:16:39;;;;;;;1.47;0.90;;;30.20;82.30;;;;;;4923651;28;21653;-76
2023/09/16 12:19:06;;;;;;;1.50;1.13;;;30.50;83.20;;;;;;4934316;28;20470;-76
2023/09/16 12:21:35;;;;;;;1.47;0.80;;;30.60;81.50;;;;;;4922719;28;20490;-76
2023/09/16 12:24:02;;;;;;;1.43;0.80;;;30.80;81.20;;;;;;4935367;28;20501;-75
2023/09/16 12:26:31;;;;;;;1.47;0.80;;;30.90;80.70;;;;;;4920656;28;20474;-77
2023/09/16 12:28:58;;;;;;;1.50;0.80;;;30.90;79.30;;;;;;4931358;28;20860;-77
2023/09/16 12:31:25;;;;;;;1.47;0.80;;;30.70;79.80;;;;;;4916207;28;20487;-77
2023/09/16 12:33:54;;;;;;;1.43;0.80;;;30.60;80.50;;;;;;4933337;28;20495;-76
2023/09/16 12:36:24;;;;;;;1.50;1.00;;;30.60;79.80;;;;;;4919051;28;20877;-76
2023/09/16 12:38:53;;;;;;;1.50;0.80;;;30.60;80.80;;;;;;4938366;28;20478;-76
2023/09/16 12:41:21;;;;;;;1.43;0.90;;;30.50;81.10;;;;;;4917398;28;20557;-76
2023/09/16 12:43:50;;;;;;;1.47;0.80;;;30.40;81.90;;;;;;4928712;28;20574;-76
2023/09/16 12:46:20;;;;;;;1.43;0.80;;;30.40;83.70;;;;;;4922986;28;20539;-76
2023/09/16 12:48:48;;;;;;;1.47;0.80;;;30.50;83.20;;;;;;4938837;28;20928;-77
2023/09/16 12:51:17;;;;;;;1.40;0.80;;;30.60;81.90;;;;;;4919135;28;20929;-77